createdAt,value
2023-07-30T00:02:25.121Z,1.00
2023-07-30T00:04:54.622Z,1.00
2023-07-30T00:07:21.326Z,1.00
2023-07-30T00:09:48.029Z,1.00
2023-07-30T00:12:14.761Z,1.00
2023-07-30T00:14:41.447Z,1.00
2023-07-30T00:17:08.125Z,1.00
2023-07-30T00:19:34.952Z,1.00
2023-07-30T00:22:01.611Z,1.00
2023-07-30T00:24:28.495Z,1.00
2023-07-30T00:26:55.369Z,1.00
2023-07-30T00:29:22.129Z,1.00
2023-07-30T00:31:48.881Z,1.00
2023-07-30T00:34:15.615Z,1.00
2023-07-30T00:36:42.325Z,1.00
2023-07-30T00:39:12.129Z,1.00
2023-07-30T00:41:39.165Z,1.00
2023-07-30T00:44:06.317Z,1.00
2023-07-30T00:46:33.101Z,1.00
2023-07-30T00:48:59.791Z,1.00
2023-07-30T00:51:27.662Z,1.00
2023-07-30T00:53:54.415Z,1.00
2023-07-30T00:56:21.242Z,1.00
2023-07-30T00:58:49.627Z,1.00
2023-07-30T01:01:16.747Z,1.00
2023-07-30T01:03:43.720Z,1.00
2023-07-30T01:06:10.528Z,1.00
2023-07-30T01:08:37.313Z,1.00
2023-07-30T01:11:05.972Z,1.00
2023-07-30T01:13:33.990Z,1.00
2023-07-30T01:16:00.959Z,1.00
2023-07-30T01:18:27.674Z,1.00
2023-07-30T01:20:54.702Z,1.00
2023-07-30T01:23:21.406Z,1.00
2023-07-30T01:25:49.506Z,1.00
2023-07-30T01:28:19.249Z,1.00
2023-07-30T01:30:46.724Z,1.00
2023-07-30T01:33:13.583Z,1.00
2023-07-30T01:35:42.915Z,1.00
2023-07-30T01:38:10.161Z,1.00
2023-07-30T01:40:36.939Z,1.00
2023-07-30T01:43:03.714Z,1.00
2023-07-30T01:45:30.468Z,1.00
2023-07-30T01:47:57.194Z,1.00
2023-07-30T01:50:23.969Z,1.00
2023-07-30T01:52:50.740Z,1.00
2023-07-30T01:55:18.110Z,1.00
2023-07-30T01:57:44.804Z,1.00
2023-07-30T02:00:12.037Z,1.00
2023-07-30T02:02:39.127Z,1.00
2023-07-30T02:05:06.136Z,1.00
2023-07-30T02:07:32.828Z,1.00
2023-07-30T02:09:59.584Z,1.00
2023-07-30T02:12:26.323Z,1.00
2023-07-30T02:14:53.449Z,1.00
2023-07-30T02:17:20.175Z,1.00
2023-07-30T02:19:46.867Z,1.00
2023-07-30T02:22:13.579Z,1.00
2023-07-30T02:24:40.330Z,1.00
2023-07-30T02:27:07.202Z,1.00
2023-07-30T02:29:33.887Z,1.00
2023-07-30T02:32:00.974Z,1.00
2023-07-30T02:34:28.003Z,1.00
2023-07-30T02:36:54.730Z,1.00
2023-07-30T02:39:21.817Z,1.00
2023-07-30T02:41:48.709Z,1.00
2023-07-30T02:44:15.429Z,1.00
2023-07-30T02:46:42.148Z,1.00
2023-07-30T02:49:09.742Z,1.00
2023-07-30T02:51:37.043Z,1.00
2023-07-30T02:54:08.317Z,1.00
2023-07-30T02:56:35.085Z,1.00
2023-07-30T02:59:02.584Z,1.00
2023-07-30T03:01:29.370Z,1.00
2023-07-30T03:03:56.131Z,1.00
2023-07-30T03:06:22.927Z,1.00
2023-07-30T03:08:49.678Z,1.00
2023-07-30T03:11:16.433Z,1.00
2023-07-30T03:13:43.147Z,1.00
2023-07-30T03:16:09.897Z,1.00
2023-07-30T03:18:36.647Z,1.00
2023-07-30T03:21:04.522Z,1.00
2023-07-30T03:23:31.243Z,1.00
2023-07-30T03:25:58.536Z,1.00
2023-07-30T03:28:25.303Z,1.00
2023-07-30T03:30:52.102Z,1.00
2023-07-30T03:33:18.866Z,1.00
2023-07-30T03:35:45.596Z,1.00
2023-07-30T03:38:12.276Z,1.00
2023-07-30T03:40:39.025Z,1.00
2023-07-30T03:43:05.774Z,1.00
2023-07-30T03:45:32.765Z,1.00
2023-07-30T03:47:59.701Z,1.00
2023-07-30T03:50:26.427Z,1.00
2023-07-30T03:52:53.182Z,1.00
2023-07-30T03:55:20.000Z,1.00
2023-07-30T03:57:46.807Z,1.00
2023-07-30T04:00:13.758Z,1.00
2023-07-30T04:02:40.551Z,1.00
2023-07-30T04:05:08.336Z,1.00
2023-07-30T04:07:35.095Z,1.00
2023-07-30T04:10:01.919Z,1.00
2023-07-30T04:12:28.621Z,1.00
2023-07-30T04:14:55.380Z,1.00
2023-07-30T04:17:22.105Z,1.00
2023-07-30T04:19:49.044Z,1.00
2023-07-30T04:22:16.074Z,1.00
2023-07-30T04:24:42.865Z,1.00
2023-07-30T04:27:09.630Z,1.00
2023-07-30T04:29:36.455Z,1.00
2023-07-30T04:32:03.347Z,1.00
2023-07-30T04:34:30.054Z,1.00
2023-07-30T04:36:56.831Z,1.00
2023-07-30T04:39:23.580Z,1.00
2023-07-30T04:41:50.265Z,1.00
2023-07-30T04:44:17.028Z,1.00
2023-07-30T04:46:43.857Z,1.00
2023-07-30T04:49:10.768Z,1.00
2023-07-30T04:51:37.781Z,1.00
2023-07-30T04:54:04.751Z,1.00
2023-07-30T04:56:31.505Z,1.00
2023-07-30T04:58:58.251Z,1.00
2023-07-30T05:01:28.308Z,1.00
2023-07-30T05:03:55.276Z,1.00
2023-07-30T05:06:23.656Z,1.00
2023-07-30T05:08:50.644Z,1.00
2023-07-30T05:11:19.357Z,1.00
2023-07-30T05:13:46.220Z,1.00
2023-07-30T05:16:12.987Z,1.00
2023-07-30T05:18:39.718Z,1.00
2023-07-30T05:21:06.569Z,1.00
2023-07-30T05:23:33.326Z,1.00
2023-07-30T05:26:00.052Z,1.00
2023-07-30T05:28:27.296Z,1.00
2023-07-30T05:30:54.089Z,1.00
2023-07-30T05:33:20.779Z,1.00
2023-07-30T05:35:49.093Z,1.00
2023-07-30T05:38:15.980Z,1.00
2023-07-30T05:40:43.049Z,1.00
2023-07-30T05:43:09.962Z,1.00
2023-07-30T05:45:36.707Z,1.00
2023-07-30T05:48:03.624Z,1.00
2023-07-30T05:50:30.570Z,1.00
2023-07-30T05:52:57.262Z,1.00
2023-07-30T05:55:24.996Z,1.00
2023-07-30T05:57:51.715Z,1.00
2023-07-30T06:00:18.483Z,1.00
2023-07-30T06:02:45.273Z,1.00
2023-07-30T06:05:12.179Z,1.00
2023-07-30T06:07:38.972Z,1.00
2023-07-30T06:10:06.227Z,1.00
2023-07-30T06:12:32.929Z,1.00
2023-07-30T06:15:02.723Z,1.00
2023-07-30T06:17:31.716Z,1.00
2023-07-30T06:19:59.826Z,1.00
2023-07-30T06:22:26.549Z,1.00
2023-07-30T06:24:53.313Z,1.00
2023-07-30T06:27:20.514Z,1.00
2023-07-30T06:29:47.217Z,1.00
2023-07-30T06:32:13.947Z,1.00
2023-07-30T06:34:40.754Z,1.00
2023-07-30T06:37:07.487Z,1.00
2023-07-30T06:39:34.167Z,1.00
2023-07-30T06:42:00.847Z,1.00
2023-07-30T06:44:27.585Z,1.00
2023-07-30T06:46:54.296Z,1.00
2023-07-30T06:49:21.068Z,1.00
2023-07-30T06:51:47.942Z,1.00
2023-07-30T06:54:14.798Z,1.00
2023-07-30T06:56:41.534Z,1.00
2023-07-30T06:59:08.279Z,1.00
2023-07-30T07:01:35.184Z,1.00
2023-07-30T07:04:01.936Z,1.00
2023-07-30T07:06:28.652Z,1.00
2023-07-30T07:08:55.408Z,1.00
2023-07-30T07:11:22.129Z,1.00
2023-07-30T07:13:48.875Z,1.00
2023-07-30T07:16:15.709Z,1.00
2023-07-30T07:18:42.786Z,1.00
2023-07-30T07:21:09.514Z,1.00
2023-07-30T07:23:36.246Z,1.00
2023-07-30T07:26:03.115Z,1.00
2023-07-30T07:28:29.853Z,1.00
2023-07-30T07:30:56.966Z,1.00
2023-07-30T07:33:23.773Z,1.00
2023-07-30T07:35:50.827Z,1.00
2023-07-30T07:38:18.108Z,1.00
2023-07-30T07:40:45.141Z,1.00
2023-07-30T07:43:12.140Z,1.00
2023-07-30T07:45:38.925Z,1.00
2023-07-30T07:48:05.851Z,1.00
2023-07-30T07:50:32.717Z,1.00
2023-07-30T07:52:59.446Z,1.00
2023-07-30T07:55:26.189Z,1.00
2023-07-30T07:57:52.875Z,1.00
2023-07-30T08:00:20.571Z,1.00
2023-07-30T08:02:50.420Z,1.00
2023-07-30T08:05:18.287Z,1.00
2023-07-30T08:07:47.302Z,1.00
2023-07-30T08:10:14.056Z,1.00
2023-07-30T08:12:40.801Z,1.00
2023-07-30T08:15:07.942Z,1.00
2023-07-30T08:17:34.747Z,1.00
2023-07-30T08:20:01.660Z,1.00
2023-07-30T08:22:28.391Z,1.00
2023-07-30T08:24:55.165Z,1.00
2023-07-30T08:27:21.921Z,1.00
2023-07-30T08:29:48.678Z,1.00
2023-07-30T08:32:15.482Z,1.00
2023-07-30T08:34:42.357Z,1.00
2023-07-30T08:37:09.265Z,1.00
2023-07-30T08:39:36.058Z,1.00
2023-07-30T08:42:03.605Z,1.00
2023-07-30T08:44:30.526Z,1.00
2023-07-30T08:46:57.299Z,1.00
2023-07-30T08:49:24.098Z,1.00
2023-07-30T08:51:54.488Z,1.00
2023-07-30T08:54:21.903Z,1.00
2023-07-30T08:56:48.920Z,1.00
2023-07-30T08:59:16.384Z,1.00
2023-07-30T09:01:45.208Z,1.00
2023-07-30T09:04:11.997Z,1.00
2023-07-30T09:06:39.772Z,1.00
2023-07-30T09:09:06.627Z,1.00
2023-07-30T09:11:33.423Z,1.00
2023-07-30T09:14:04.224Z,1.00
2023-07-30T09:16:31.130Z,1.00
2023-07-30T09:18:57.941Z,1.00
2023-07-30T09:21:35.128Z,1.00
2023-07-30T09:24:07.001Z,1.00
2023-07-30T09:26:44.685Z,1.00
2023-07-30T09:29:11.842Z,1.00
2023-07-30T09:31:54.368Z,1.00
2023-07-30T09:34:23.010Z,1.00
2023-07-30T09:36:52.955Z,1.00
2023-07-30T09:39:27.381Z,1.00
2023-07-30T09:42:00.391Z,1.00
2023-07-30T09:44:27.629Z,1.00
2023-07-30T09:46:54.512Z,1.00
2023-07-30T09:49:21.623Z,1.00
2023-07-30T09:51:49.686Z,1.00
2023-07-30T09:54:16.714Z,1.00
2023-07-30T09:56:43.852Z,1.00
2023-07-30T09:59:11.100Z,1.00
2023-07-30T10:01:44.945Z,1.00
2023-07-30T10:04:12.645Z,1.00
2023-07-30T10:06:47.312Z,1.00
2023-07-30T10:09:15.623Z,1.00
2023-07-30T10:11:43.261Z,1.00
2023-07-30T10:14:10.206Z,1.00
2023-07-30T10:16:37.068Z,1.00
2023-07-30T10:19:03.908Z,1.00
2023-07-30T10:21:34.032Z,1.00
2023-07-30T10:24:05.496Z,1.00
2023-07-30T10:26:34.741Z,1.00
2023-07-30T10:29:20.531Z,1.00
2023-07-30T10:31:57.287Z,1.00
2023-07-30T10:34:28.618Z,1.00
2023-07-30T10:37:01.079Z,1.00
2023-07-30T10:39:29.036Z,1.00
2023-07-30T10:42:01.881Z,1.00
2023-07-30T10:44:32.588Z,1.00
2023-07-30T10:47:00.330Z,1.00
2023-07-30T10:49:27.772Z,1.00
2023-07-30T10:51:58.665Z,1.00
2023-07-30T10:54:26.386Z,1.00
2023-07-30T10:56:53.141Z,1.00
2023-07-30T10:59:22.532Z,1.00
2023-07-30T11:01:52.228Z,1.00
2023-07-30T11:04:20.479Z,1.00
2023-07-30T11:06:54.189Z,1.00
2023-07-30T11:09:24.168Z,1.00
2023-07-30T11:11:57.845Z,1.00
2023-07-30T11:14:29.139Z,1.00
2023-07-30T11:17:03.353Z,1.00
2023-07-30T11:19:30.965Z,1.00
2023-07-30T11:21:58.716Z,1.00
2023-07-30T11:24:38.686Z,1.00
2023-07-30T11:27:10.047Z,1.00
2023-07-30T11:29:36.856Z,1.00
2023-07-30T11:32:04.465Z,1.00
2023-07-30T11:34:33.616Z,1.00
2023-07-30T11:37:02.004Z,1.00
2023-07-30T11:39:29.753Z,1.00
2023-07-30T11:41:56.641Z,1.00
2023-07-30T11:44:53.036Z,1.00
2023-07-30T11:47:23.749Z,1.00
2023-07-30T11:49:59.938Z,1.00
2023-07-30T11:52:26.844Z,1.00
2023-07-30T11:55:04.612Z,1.00
2023-07-30T11:57:40.273Z,1.00
2023-07-30T12:00:09.757Z,1.00
2023-07-30T12:02:38.673Z,1.00
2023-07-30T12:05:12.387Z,1.00
2023-07-30T12:07:43.502Z,1.00
2023-07-30T12:10:14.332Z,1.00
2023-07-30T12:12:47.878Z,1.00
2023-07-30T12:15:20.592Z,1.00
2023-07-30T12:17:48.018Z,1.00
2023-07-30T12:20:14.923Z,1.00
2023-07-30T12:22:43.833Z,1.00
2023-07-30T12:25:11.663Z,1.00
2023-07-30T12:27:38.534Z,1.00
2023-07-30T12:30:08.658Z,1.00
2023-07-30T12:32:38.054Z,1.00
2023-07-30T12:35:05.893Z,1.00
2023-07-30T12:37:33.953Z,1.00
2023-07-30T12:40:02.327Z,1.00
2023-07-30T12:42:36.689Z,1.00
2023-07-30T12:45:03.750Z,1.00
2023-07-30T12:47:30.601Z,1.00
2023-07-30T12:49:57.771Z,1.00
2023-07-30T12:52:24.569Z,1.00
2023-07-30T12:54:51.669Z,1.00
2023-07-30T12:57:18.551Z,1.00
2023-07-30T12:59:45.357Z,1.00
2023-07-30T13:02:12.152Z,1.00
2023-07-30T13:04:42.054Z,1.00
2023-07-30T13:07:08.881Z,1.00
2023-07-30T13:09:35.750Z,1.00
2023-07-30T13:12:02.573Z,99.90
2023-07-30T13:14:29.341Z,99.90
2023-07-30T13:16:57.727Z,1.00
2023-07-30T13:19:24.449Z,1.00
2023-07-30T13:21:51.152Z,1.00
2023-07-30T13:24:18.044Z,99.90
2023-07-30T13:26:45.050Z,99.90
2023-07-30T13:29:11.966Z,99.90
2023-07-30T13:31:39.059Z,99.90
2023-07-30T13:34:06.085Z,99.90
2023-07-30T13:36:32.903Z,99.90
2023-07-30T13:38:59.723Z,99.90
2023-07-30T13:41:26.659Z,99.90
2023-07-30T13:43:53.483Z,99.90
2023-07-30T13:46:20.289Z,99.90
2023-07-30T13:48:47.176Z,99.90
2023-07-30T13:51:17.127Z,99.90
2023-07-30T13:53:43.962Z,99.90
2023-07-30T13:56:10.792Z,94.30
2023-07-30T13:58:40.613Z,91.70
2023-07-30T14:01:10.797Z,99.90
2023-07-30T14:03:37.602Z,99.90
2023-07-30T14:06:04.526Z,72.80
2023-07-30T14:08:31.503Z,88.80
2023-07-30T14:11:00.028Z,99.90
2023-07-30T14:13:29.599Z,99.20
2023-07-30T14:15:56.840Z,38.40
2023-07-30T14:18:25.381Z,71.60
2023-07-30T14:20:52.305Z,14.20
2023-07-30T14:23:19.842Z,1.00
2023-07-30T14:25:46.579Z,28.80
2023-07-30T14:28:15.748Z,95.10
2023-07-30T14:30:45.386Z,34.00
2023-07-30T14:33:12.669Z,99.90
2023-07-30T14:35:40.121Z,50.00
2023-07-30T14:38:07.230Z,98.90
2023-07-30T14:40:34.363Z,1.00
2023-07-30T14:43:01.185Z,1.00
2023-07-30T14:45:27.992Z,1.00
2023-07-30T14:47:54.803Z,1.00
2023-07-30T14:50:21.686Z,1.00
2023-07-30T14:52:48.431Z,36.20
2023-07-30T14:55:16.036Z,30.10
2023-07-30T14:57:43.021Z,54.60
2023-07-30T15:00:11.053Z,1.00
2023-07-30T15:02:37.923Z,1.00
2023-07-30T15:05:05.098Z,1.00
2023-07-30T15:07:31.835Z,1.00
2023-07-30T15:09:58.647Z,99.90
2023-07-30T15:12:25.429Z,99.90
2023-07-30T15:14:54.676Z,1.00
2023-07-30T15:17:21.536Z,1.00
2023-07-30T15:19:49.192Z,1.00
2023-07-30T15:22:16.004Z,1.00
2023-07-30T15:24:42.742Z,1.00
2023-07-30T15:27:09.608Z,1.00
2023-07-30T15:29:36.561Z,36.20
2023-07-30T15:32:04.115Z,96.00
2023-07-30T15:34:30.960Z,6.90
2023-07-30T15:36:57.785Z,1.00
2023-07-30T15:39:24.517Z,1.00
2023-07-30T15:41:54.603Z,99.90
2023-07-30T15:44:21.494Z,1.00
2023-07-30T15:46:48.372Z,1.00
2023-07-30T15:49:15.348Z,1.00
2023-07-30T15:51:42.073Z,1.00
2023-07-30T15:54:09.537Z,1.00
2023-07-30T15:56:37.063Z,1.00
2023-07-30T15:59:04.175Z,1.00
2023-07-30T16:01:31.033Z,1.00
2023-07-30T16:03:57.888Z,1.00
2023-07-30T16:06:27.538Z,99.90
2023-07-30T16:08:55.307Z,45.40
2023-07-30T16:11:22.151Z,1.00
2023-07-30T16:13:49.280Z,99.90
2023-07-30T16:16:20.456Z,99.90
2023-07-30T16:18:51.130Z,99.90
2023-07-30T16:21:18.422Z,1.00
2023-07-30T16:23:45.364Z,99.90
2023-07-30T16:26:13.440Z,1.00
2023-07-30T16:28:45.281Z,99.90
2023-07-30T16:31:12.200Z,1.00
2023-07-30T16:33:39.024Z,1.00
2023-07-30T16:36:08.026Z,1.00
2023-07-30T16:38:36.680Z,1.00
2023-07-30T16:41:05.453Z,1.00
2023-07-30T16:43:32.304Z,99.90
2023-07-30T16:46:04.360Z,99.90
2023-07-30T16:48:31.673Z,99.90
2023-07-30T16:50:58.763Z,1.00
2023-07-30T16:53:25.717Z,69.10
2023-07-30T16:55:52.641Z,79.30
2023-07-30T16:58:19.419Z,99.90
2023-07-30T17:00:46.469Z,51.80
2023-07-30T17:03:13.668Z,1.00
2023-07-30T17:05:40.599Z,99.90
2023-07-30T17:08:08.857Z,99.90
2023-07-30T17:10:38.789Z,1.00
2023-07-30T17:13:05.686Z,99.90
2023-07-30T17:15:32.451Z,1.00
2023-07-30T17:17:59.199Z,1.00
2023-07-30T17:20:26.052Z,99.90
2023-07-30T17:22:53.378Z,1.00
2023-07-30T17:25:20.396Z,1.00
2023-07-30T17:27:47.177Z,99.90
2023-07-30T17:30:13.997Z,1.00
2023-07-30T17:32:41.035Z,99.90
2023-07-30T17:35:10.141Z,99.90
2023-07-30T17:37:39.398Z,99.90
2023-07-30T17:40:10.790Z,1.00
2023-07-30T17:42:41.071Z,1.00
2023-07-30T17:45:09.187Z,99.90
2023-07-30T17:47:36.356Z,1.00
2023-07-30T17:50:03.329Z,1.00
2023-07-30T17:52:32.361Z,91.60
2023-07-30T17:54:59.163Z,99.90
2023-07-30T17:57:25.944Z,1.00
2023-07-30T17:59:52.655Z,72.60
2023-07-30T18:02:19.935Z,1.00
2023-07-30T18:04:46.733Z,1.00
2023-07-30T18:07:13.632Z,99.90
2023-07-30T18:09:46.580Z,99.90
2023-07-30T18:12:13.703Z,99.90
2023-07-30T18:14:40.534Z,99.90
2023-07-30T18:17:07.675Z,99.90
2023-07-30T18:19:34.465Z,99.90
2023-07-30T18:22:01.508Z,99.90
2023-07-30T18:24:28.468Z,66.80
2023-07-30T18:26:55.237Z,99.90
2023-07-30T18:29:22.212Z,99.90
2023-07-30T18:31:49.339Z,1.00
2023-07-30T18:34:16.598Z,1.00
2023-07-30T18:36:43.548Z,1.00
2023-07-30T18:39:10.947Z,1.00
2023-07-30T18:41:38.264Z,1.00
2023-07-30T18:44:05.800Z,80.00
2023-07-30T18:46:35.730Z,50.70
2023-07-30T18:49:03.076Z,99.90
2023-07-30T18:51:29.956Z,99.90
2023-07-30T18:53:56.827Z,99.90
2023-07-30T18:56:23.749Z,99.90
2023-07-30T18:58:52.612Z,99.90
2023-07-30T19:01:21.485Z,99.90
2023-07-30T19:03:49.093Z,99.90
2023-07-30T19:06:16.026Z,99.90
2023-07-30T19:08:42.770Z,99.90
2023-07-30T19:11:09.649Z,99.90
2023-07-30T19:13:36.379Z,1.00
2023-07-30T19:16:03.155Z,1.00
2023-07-30T19:18:29.880Z,1.00
2023-07-30T19:20:56.640Z,1.00
2023-07-30T19:23:23.647Z,1.00
2023-07-30T19:25:51.266Z,1.00
2023-07-30T19:28:20.883Z,1.00
2023-07-30T19:30:47.859Z,1.00
2023-07-30T19:33:16.876Z,1.00
2023-07-30T19:35:50.751Z,1.00
2023-07-30T19:38:18.551Z,1.00
2023-07-30T19:40:51.607Z,1.00
2023-07-30T19:43:21.497Z,1.00
2023-07-30T19:45:48.231Z,1.00
2023-07-30T19:48:16.694Z,1.00
2023-07-30T19:50:44.606Z,1.00
2023-07-30T19:53:11.685Z,1.00
2023-07-30T19:55:40.455Z,1.00
2023-07-30T19:58:27.174Z,21.20
2023-07-30T20:00:54.566Z,19.70
2023-07-30T20:03:21.524Z,47.10
2023-07-30T20:05:48.345Z,32.60
2023-07-30T20:08:15.097Z,88.20
2023-07-30T20:10:41.780Z,99.90
2023-07-30T20:13:08.857Z,99.90
2023-07-30T20:15:36.958Z,99.90
2023-07-30T20:18:05.070Z,99.90
2023-07-30T20:20:32.549Z,99.90
2023-07-30T20:22:59.462Z,99.90
2023-07-30T20:25:26.305Z,99.90
2023-07-30T20:27:53.242Z,99.90
2023-07-30T20:30:21.539Z,99.90
2023-07-30T20:32:48.324Z,99.90
2023-07-30T20:35:15.210Z,99.90
2023-07-30T20:37:41.981Z,99.90
2023-07-30T20:40:09.348Z,99.90
2023-07-30T20:42:36.132Z,99.90
2023-07-30T20:45:02.928Z,99.90
2023-07-30T20:47:29.738Z,99.90
2023-07-30T20:49:56.560Z,99.90
2023-07-30T20:52:24.490Z,99.90
2023-07-30T20:54:51.239Z,99.90
2023-07-30T20:57:18.216Z,99.90
2023-07-30T20:59:45.055Z,99.90
2023-07-30T21:02:11.799Z,99.90
2023-07-30T21:04:38.779Z,99.90
2023-07-30T21:07:05.757Z,99.90
2023-07-30T21:09:32.473Z,99.90
2023-07-30T21:11:59.393Z,99.90
2023-07-30T21:14:26.134Z,99.90
2023-07-30T21:16:55.805Z,99.90
2023-07-30T21:19:22.964Z,99.90
2023-07-30T21:21:49.697Z,99.90
2023-07-30T21:24:16.416Z,99.90
2023-07-30T21:26:43.253Z,99.90
2023-07-30T21:29:10.388Z,99.90
2023-07-30T21:31:37.349Z,99.90
2023-07-30T21:34:04.144Z,99.90
2023-07-30T21:36:30.885Z,99.90
2023-07-30T21:38:57.626Z,99.90
2023-07-30T21:41:24.289Z,99.90
2023-07-30T21:43:50.971Z,99.90
2023-07-30T21:46:17.631Z,99.90
2023-07-30T21:48:44.500Z,99.90
2023-07-30T21:51:11.392Z,99.90
2023-07-30T21:53:38.128Z,99.90
2023-07-30T21:56:05.045Z,99.90
2023-07-30T21:58:31.980Z,99.90
2023-07-30T22:00:59.581Z,99.90
2023-07-30T22:03:26.977Z,99.90
2023-07-30T22:05:53.836Z,99.90
2023-07-30T22:08:21.332Z,99.90
2023-07-30T22:10:48.545Z,99.90
2023-07-30T22:13:18.072Z,99.90
2023-07-30T22:15:45.954Z,99.90
2023-07-30T22:18:13.570Z,99.90
2023-07-30T22:20:40.899Z,99.90
2023-07-30T22:23:07.790Z,99.90
2023-07-30T22:25:34.521Z,99.90
2023-07-30T22:28:09.275Z,99.90
2023-07-30T22:30:40.606Z,99.90
2023-07-30T22:33:07.444Z,99.90
2023-07-30T22:35:34.181Z,99.90
2023-07-30T22:38:01.071Z,99.90
2023-07-30T22:40:28.490Z,99.90
2023-07-30T22:42:55.337Z,99.90
2023-07-30T22:45:22.218Z,99.90
2023-07-30T22:47:49.382Z,99.90
2023-07-30T22:50:16.204Z,99.90
2023-07-30T22:52:42.953Z,99.90
2023-07-30T22:55:09.841Z,99.90
2023-07-30T22:57:36.786Z,99.90
2023-07-30T23:00:05.968Z,99.90
2023-07-30T23:02:33.207Z,99.90
2023-07-30T23:05:01.483Z,99.90
2023-07-30T23:07:28.214Z,99.90
2023-07-30T23:09:55.004Z,99.90
2023-07-30T23:12:21.744Z,99.90
2023-07-30T23:14:48.476Z,99.90
2023-07-30T23:17:15.139Z,99.90
2023-07-30T23:19:41.877Z,99.90
2023-07-30T23:22:08.614Z,99.90
2023-07-30T23:24:35.404Z,99.90
2023-07-30T23:27:02.174Z,99.90
2023-07-30T23:29:28.831Z,99.90
2023-07-30T23:31:55.691Z,99.90
2023-07-30T23:34:22.587Z,99.90
2023-07-30T23:36:49.423Z,99.90
2023-07-30T23:39:16.188Z,99.90
2023-07-30T23:41:43.055Z,99.90
2023-07-30T23:44:09.827Z,99.90
2023-07-30T23:46:36.727Z,99.90
2023-07-30T23:49:03.775Z,99.90
2023-07-30T23:51:31.756Z,99.90
2023-07-30T23:53:59.383Z,1.00
2023-07-30T23:56:26.637Z,1.00
2023-07-30T23:58:53.323Z,99.90
